sensor_id;sensor_type;location;lat;lon;timestamp;P1;durP1;ratioP1;P2;durP2;ratioP2
24305;SDS011;12423;48.768;8.850;2023-04-15T00:01:44;7.10;;;2.95;;
24305;SDS011;12423;48.768;8.850;2023-04-15T00:03:44;8.40;;;3.38;;
24305;SDS011;12423;48.768;8.850;2023-04-15T00:05:45;6.20;;;3.40;;
24305;SDS011;12423;48.768;8.850;2023-04-15T00:07:46;8.18;;;3.53;;
24305;SDS011;12423;48.768;8.850;2023-04-15T00:09:47;8.63;;;3.53;;
24305;SDS011;12423;48.768;8.850;2023-04-15T00:11:47;6.72;;;3.10;;
24305;SDS011;12423;48.768;8.850;2023-04-15T00:13:49;7.43;;;2.53;;
24305;SDS011;12423;48.768;8.850;2023-04-15T00:15:50;8.02;;;3.30;;
24305;SDS011;12423;48.768;8.850;2023-04-15T00:17:51;7.57;;;3.70;;
24305;SDS011;12423;48.768;8.850;2023-04-15T00:19:52;14.82;;;4.80;;
24305;SDS011;12423;48.768;8.850;2023-04-15T00:21:53;10.27;;;4.18;;
24305;SDS011;12423;48.768;8.850;2023-04-15T00:23:54;11.25;;;4.93;;
24305;SDS011;12423;48.768;8.850;2023-04-15T00:25:55;9.73;;;3.80;;
24305;SDS011;12423;48.768;8.850;2023-04-15T00:27:56;9.52;;;3.80;;
24305;SDS011;12423;48.768;8.850;2023-04-15T00:29:57;8.95;;;3.28;;
24305;SDS011;12423;48.768;8.850;2023-04-15T00:31:58;7.88;;;3.10;;
24305;SDS011;12423;48.768;8.850;2023-04-15T00:33:58;6.18;;;2.95;;
24305;SDS011;12423;48.768;8.850;2023-04-15T00:35:59;7.03;;;3.05;;
24305;SDS011;12423;48.768;8.850;2023-04-15T00:38:00;8.93;;;3.45;;
24305;SDS011;12423;48.768;8.850;2023-04-15T00:40:00;10.15;;;4.85;;
24305;SDS011;12423;48.768;8.850;2023-04-15T00:42:03;11.93;;;4.38;;
24305;SDS011;12423;48.768;8.850;2023-04-15T00:44:07;13.95;;;5.10;;
24305;SDS011;12423;48.768;8.850;2023-04-15T00:46:07;10.73;;;5.45;;
24305;SDS011;12423;48.768;8.850;2023-04-15T00:48:08;13.63;;;5.30;;
24305;SDS011;12423;48.768;8.850;2023-04-15T00:50:10;10.50;;;4.47;;
24305;SDS011;12423;48.768;8.850;2023-04-15T00:52:12;7.75;;;3.90;;
24305;SDS011;12423;48.768;8.850;2023-04-15T00:54:12;9.30;;;3.65;;
24305;SDS011;12423;48.768;8.850;2023-04-15T00:56:14;8.40;;;3.97;;
24305;SDS011;12423;48.768;8.850;2023-04-15T00:58:15;8.77;;;3.63;;
24305;SDS011;12423;48.768;8.850;2023-04-15T01:00:16;8.32;;;3.97;;
24305;SDS011;12423;48.768;8.850;2023-04-15T01:02:17;6.68;;;3.15;;
24305;SDS011;12423;48.768;8.850;2023-04-15T01:04:18;17.45;;;5.20;;
24305;SDS011;12423;48.768;8.850;2023-04-15T01:06:18;26.05;;;9.43;;
24305;SDS011;12423;48.768;8.850;2023-04-15T01:08:19;25.10;;;7.53;;
24305;SDS011;12423;48.768;8.850;2023-04-15T01:10:20;22.17;;;6.18;;
24305;SDS011;12423;48.768;8.850;2023-04-15T01:12:20;13.82;;;4.30;;
24305;SDS011;12423;48.768;8.850;2023-04-15T01:14:22;10.57;;;3.38;;
24305;SDS011;12423;48.768;8.850;2023-04-15T01:16:22;7.78;;;3.15;;
24305;SDS011;12423;48.768;8.850;2023-04-15T01:18:23;6.93;;;3.53;;
24305;SDS011;12423;48.768;8.850;2023-04-15T01:20:24;7.85;;;2.35;;
24305;SDS011;12423;48.768;8.850;2023-04-15T01:22:26;6.40;;;2.72;;
24305;SDS011;12423;48.768;8.850;2023-04-15T01:24:27;6.72;;;2.88;;
24305;SDS011;12423;48.768;8.850;2023-04-15T01:26:29;6.18;;;2.78;;
24305;SDS011;12423;48.768;8.850;2023-04-15T01:28:30;7.25;;;3.13;;
24305;SDS011;12423;48.768;8.850;2023-04-15T01:30:34;6.30;;;3.15;;
24305;SDS011;12423;48.768;8.850;2023-04-15T01:32:35;11.75;;;3.08;;
24305;SDS011;12423;48.768;8.850;2023-04-15T01:34:36;5.13;;;2.47;;
24305;SDS011;12423;48.768;8.850;2023-04-15T01:36:36;6.93;;;2.70;;
24305;SDS011;12423;48.768;8.850;2023-04-15T01:38:37;8.73;;;2.53;;
24305;SDS011;12423;48.768;8.850;2023-04-15T01:40:38;6.95;;;3.15;;
24305;SDS011;12423;48.768;8.850;2023-04-15T01:45:43;6.00;;;2.22;;
24305;SDS011;12423;48.768;8.850;2023-04-15T01:47:43;6.78;;;2.50;;
24305;SDS011;12423;48.768;8.850;2023-04-15T01:49:44;6.88;;;3.00;;
24305;SDS011;12423;48.768;8.850;2023-04-15T01:51:45;5.97;;;2.90;;
24305;SDS011;12423;48.768;8.850;2023-04-15T01:53:46;6.75;;;2.53;;
24305;SDS011;12423;48.768;8.850;2023-04-15T01:55:47;6.28;;;2.58;;
24305;SDS011;12423;48.768;8.850;2023-04-15T01:57:48;12.45;;;3.85;;
24305;SDS011;12423;48.768;8.850;2023-04-15T01:59:49;17.60;;;4.05;;
24305;SDS011;12423;48.768;8.850;2023-04-15T02:01:50;8.30;;;4.55;;
24305;SDS011;12423;48.768;8.850;2023-04-15T02:03:51;9.75;;;4.60;;
24305;SDS011;12423;48.768;8.850;2023-04-15T02:05:52;12.32;;;4.05;;
24305;SDS011;12423;48.768;8.850;2023-04-15T02:07:52;10.77;;;3.58;;
24305;SDS011;12423;48.768;8.850;2023-04-15T02:09:53;10.18;;;3.58;;
24305;SDS011;12423;48.768;8.850;2023-04-15T02:11:54;13.45;;;3.65;;
24305;SDS011;12423;48.768;8.850;2023-04-15T02:13:55;11.00;;;3.85;;
24305;SDS011;12423;48.768;8.850;2023-04-15T02:15:56;6.85;;;3.13;;
24305;SDS011;12423;48.768;8.850;2023-04-15T02:17:56;8.95;;;3.15;;
24305;SDS011;12423;48.768;8.850;2023-04-15T02:19:58;11.45;;;3.60;;
24305;SDS011;12423;48.768;8.850;2023-04-15T02:21:59;10.30;;;3.53;;
24305;SDS011;12423;48.768;8.850;2023-04-15T02:24:01;8.90;;;3.05;;
24305;SDS011;12423;48.768;8.850;2023-04-15T02:26:01;6.93;;;3.38;;
24305;SDS011;12423;48.768;8.850;2023-04-15T02:28:05;10.23;;;3.88;;
24305;SDS011;12423;48.768;8.850;2023-04-15T02:30:06;5.53;;;2.80;;
24305;SDS011;12423;48.768;8.850;2023-04-15T02:32:08;8.45;;;3.15;;
24305;SDS011;12423;48.768;8.850;2023-04-15T02:34:10;6.07;;;2.72;;
24305;SDS011;12423;48.768;8.850;2023-04-15T02:36:11;7.63;;;2.97;;
24305;SDS011;12423;48.768;8.850;2023-04-15T02:38:12;6.18;;;2.80;;
24305;SDS011;12423;48.768;8.850;2023-04-15T02:40:13;6.85;;;2.70;;
24305;SDS011;12423;48.768;8.850;2023-04-15T02:42:14;4.70;;;2.80;;
24305;SDS011;12423;48.768;8.850;2023-04-15T02:44:15;9.93;;;3.15;;
24305;SDS011;12423;48.768;8.850;2023-04-15T02:46:18;6.38;;;2.95;;
24305;SDS011;12423;48.768;8.850;2023-04-15T02:48:19;5.50;;;2.72;;
24305;SDS011;12423;48.768;8.850;2023-04-15T02:50:20;5.85;;;2.53;;
24305;SDS011;12423;48.768;8.850;2023-04-15T02:52:23;6.25;;;2.97;;
24305;SDS011;12423;48.768;8.850;2023-04-15T02:54:24;5.53;;;2.72;;
24305;SDS011;12423;48.768;8.850;2023-04-15T02:56:25;5.72;;;2.70;;
24305;SDS011;12423;48.768;8.850;2023-04-15T02:58:26;7.07;;;2.60;;
24305;SDS011;12423;48.768;8.850;2023-04-15T03:00:27;5.55;;;2.72;;
24305;SDS011;12423;48.768;8.850;2023-04-15T03:02:32;6.35;;;2.47;;
24305;SDS011;12423;48.768;8.850;2023-04-15T03:04:33;9.75;;;2.38;;
24305;SDS011;12423;48.768;8.850;2023-04-15T03:06:33;7.78;;;2.50;;
24305;SDS011;12423;48.768;8.850;2023-04-15T03:08:34;5.13;;;2.47;;
24305;SDS011;12423;48.768;8.850;2023-04-15T03:10:35;6.03;;;2.60;;
24305;SDS011;12423;48.768;8.850;2023-04-15T03:12:36;6.05;;;2.53;;
24305;SDS011;12423;48.768;8.850;2023-04-15T03:14:37;7.13;;;3.40;;
24305;SDS011;12423;48.768;8.850;2023-04-15T03:16:37;6.03;;;2.45;;
24305;SDS011;12423;48.768;8.850;2023-04-15T03:18:38;4.25;;;2.35;;
24305;SDS011;12423;48.768;8.850;2023-04-15T03:20:39;4.15;;;2.20;;
24305;SDS011;12423;48.768;8.850;2023-04-15T03:22:40;5.70;;;2.28;;
24305;SDS011;12423;48.768;8.850;2023-04-15T03:24:42;7.85;;;2.40;;
24305;SDS011;12423;48.768;8.850;2023-04-15T03:26:42;5.63;;;2.58;;
24305;SDS011;12423;48.768;8.850;2023-04-15T03:28:46;4.78;;;2.70;;
24305;SDS011;12423;48.768;8.850;2023-04-15T03:30:49;4.65;;;2.42;;
24305;SDS011;12423;48.768;8.850;2023-04-15T03:32:50;5.20;;;2.58;;
24305;SDS011;12423;48.768;8.850;2023-04-15T03:34:51;4.57;;;2.53;;
24305;SDS011;12423;48.768;8.850;2023-04-15T03:36:51;6.30;;;2.08;;
24305;SDS011;12423;48.768;8.850;2023-04-15T03:38:52;5.50;;;2.47;;
24305;SDS011;12423;48.768;8.850;2023-04-15T03:40:52;4.80;;;2.33;;
24305;SDS011;12423;48.768;8.850;2023-04-15T03:42:53;5.38;;;2.55;;
24305;SDS011;12423;48.768;8.850;2023-04-15T03:44:54;8.80;;;2.67;;
24305;SDS011;12423;48.768;8.850;2023-04-15T03:46:54;6.80;;;2.70;;
24305;SDS011;12423;48.768;8.850;2023-04-15T03:48:55;5.85;;;2.38;;
24305;SDS011;12423;48.768;8.850;2023-04-15T03:50:56;7.57;;;2.65;;
24305;SDS011;12423;48.768;8.850;2023-04-15T03:52:56;9.85;;;2.63;;
24305;SDS011;12423;48.768;8.850;2023-04-15T03:54:57;7.40;;;2.70;;
24305;SDS011;12423;48.768;8.850;2023-04-15T03:56:57;10.13;;;2.58;;
24305;SDS011;12423;48.768;8.850;2023-04-15T03:58:58;8.95;;;2.47;;
24305;SDS011;12423;48.768;8.850;2023-04-15T04:00:58;4.93;;;2.58;;
24305;SDS011;12423;48.768;8.850;2023-04-15T04:02:59;5.85;;;2.58;;
24305;SDS011;12423;48.768;8.850;2023-04-15T04:05:00;3.92;;;2.25;;
24305;SDS011;12423;48.768;8.850;2023-04-15T04:07:01;5.13;;;2.20;;
24305;SDS011;12423;48.768;8.850;2023-04-15T04:09:01;7.10;;;2.50;;
24305;SDS011;12423;48.768;8.850;2023-04-15T04:11:02;5.50;;;2.47;;
24305;SDS011;12423;48.768;8.850;2023-04-15T04:13:03;4.07;;;2.15;;
24305;SDS011;12423;48.768;8.850;2023-04-15T04:15:03;4.53;;;2.25;;
24305;SDS011;12423;48.768;8.850;2023-04-15T04:17:04;7.45;;;2.47;;
24305;SDS011;12423;48.768;8.850;2023-04-15T04:19:05;7.28;;;2.10;;
24305;SDS011;12423;48.768;8.850;2023-04-15T04:21:06;7.38;;;2.33;;
24305;SDS011;12423;48.768;8.850;2023-04-15T04:23:06;8.27;;;2.50;;
24305;SDS011;12423;48.768;8.850;2023-04-15T04:25:07;5.95;;;2.75;;
24305;SDS011;12423;48.768;8.850;2023-04-15T04:27:09;4.63;;;2.40;;
24305;SDS011;12423;48.768;8.850;2023-04-15T04:29:10;6.85;;;2.45;;
24305;SDS011;12423;48.768;8.850;2023-04-15T04:31:11;4.45;;;2.30;;
24305;SDS011;12423;48.768;8.850;2023-04-15T04:33:11;5.00;;;2.58;;
24305;SDS011;12423;48.768;8.850;2023-04-15T04:35:12;16.10;;;6.95;;
24305;SDS011;12423;48.768;8.850;2023-04-15T04:37:12;13.30;;;5.57;;
24305;SDS011;12423;48.768;8.850;2023-04-15T04:39:13;10.80;;;3.95;;
24305;SDS011;12423;48.768;8.850;2023-04-15T04:41:14;8.70;;;3.88;;
24305;SDS011;12423;48.768;8.850;2023-04-15T04:43:15;6.45;;;3.17;;
24305;SDS011;12423;48.768;8.850;2023-04-15T04:45:15;7.72;;;2.88;;
24305;SDS011;12423;48.768;8.850;2023-04-15T04:47:16;6.03;;;2.80;;
24305;SDS011;12423;48.768;8.850;2023-04-15T04:49:17;7.13;;;2.88;;
24305;SDS011;12423;48.768;8.850;2023-04-15T04:51:17;4.72;;;1.92;;
24305;SDS011;12423;48.768;8.850;2023-04-15T04:53:18;7.15;;;2.88;;
24305;SDS011;12423;48.768;8.850;2023-04-15T04:55:19;7.18;;;2.40;;
24305;SDS011;12423;48.768;8.850;2023-04-15T04:57:19;6.95;;;2.20;;
24305;SDS011;12423;48.768;8.850;2023-04-15T04:59:20;5.00;;;2.58;;
24305;SDS011;12423;48.768;8.850;2023-04-15T05:01:21;5.55;;;2.60;;
24305;SDS011;12423;48.768;8.850;2023-04-15T05:03:21;5.60;;;1.98;;
24305;SDS011;12423;48.768;8.850;2023-04-15T05:05:22;4.57;;;2.65;;
24305;SDS011;12423;48.768;8.850;2023-04-15T05:07:23;5.00;;;2.47;;
24305;SDS011;12423;48.768;8.850;2023-04-15T05:09:23;7.80;;;2.40;;
24305;SDS011;12423;48.768;8.850;2023-04-15T05:11:24;5.30;;;2.45;;
24305;SDS011;12423;48.768;8.850;2023-04-15T05:13:25;4.45;;;2.58;;
24305;SDS011;12423;48.768;8.850;2023-04-15T05:15:26;5.68;;;2.65;;
24305;SDS011;12423;48.768;8.850;2023-04-15T05:17:27;6.40;;;3.22;;
24305;SDS011;12423;48.768;8.850;2023-04-15T05:19:28;8.32;;;3.20;;
24305;SDS011;12423;48.768;8.850;2023-04-15T05:21:28;5.88;;;3.08;;
24305;SDS011;12423;48.768;8.850;2023-04-15T05:23:30;6.38;;;3.08;;
24305;SDS011;12423;48.768;8.850;2023-04-15T05:25:31;9.60;;;4.35;;
24305;SDS011;12423;48.768;8.850;2023-04-15T05:27:31;10.35;;;5.07;;
24305;SDS011;12423;48.768;8.850;2023-04-15T05:29:32;9.05;;;4.70;;
24305;SDS011;12423;48.768;8.850;2023-04-15T05:31:33;8.13;;;3.88;;
24305;SDS011;12423;48.768;8.850;2023-04-15T05:33:34;7.60;;;3.95;;
24305;SDS011;12423;48.768;8.850;2023-04-15T05:35:35;10.27;;;3.83;;
24305;SDS011;12423;48.768;8.850;2023-04-15T05:37:35;10.57;;;3.65;;
24305;SDS011;12423;48.768;8.850;2023-04-15T05:39:36;6.45;;;3.20;;
24305;SDS011;12423;48.768;8.850;2023-04-15T05:41:37;6.97;;;3.55;;
24305;SDS011;12423;48.768;8.850;2023-04-15T05:43:37;8.00;;;3.80;;
24305;SDS011;12423;48.768;8.850;2023-04-15T05:45:38;11.40;;;3.47;;
24305;SDS011;12423;48.768;8.850;2023-04-15T05:47:38;15.27;;;3.47;;
24305;SDS011;12423;48.768;8.850;2023-04-15T05:49:39;7.40;;;3.80;;
24305;SDS011;12423;48.768;8.850;2023-04-15T05:51:40;8.38;;;4.03;;
24305;SDS011;12423;48.768;8.850;2023-04-15T05:53:40;12.38;;;4.35;;
24305;SDS011;12423;48.768;8.850;2023-04-15T05:55:41;11.18;;;3.70;;
24305;SDS011;12423;48.768;8.850;2023-04-15T05:57:42;11.65;;;4.40;;
24305;SDS011;12423;48.768;8.850;2023-04-15T05:59:42;6.65;;;3.50;;
24305;SDS011;12423;48.768;8.850;2023-04-15T06:01:44;8.80;;;3.85;;
24305;SDS011;12423;48.768;8.850;2023-04-15T06:03:44;8.70;;;3.67;;
24305;SDS011;12423;48.768;8.850;2023-04-15T06:05:45;6.22;;;3.28;;
24305;SDS011;12423;48.768;8.850;2023-04-15T06:07:46;9.32;;;4.18;;
24305;SDS011;12423;48.768;8.850;2023-04-15T06:09:47;7.03;;;4.03;;
24305;SDS011;12423;48.768;8.850;2023-04-15T06:11:48;7.68;;;3.67;;
24305;SDS011;12423;48.768;8.850;2023-04-15T06:13:48;7.57;;;3.63;;
24305;SDS011;12423;48.768;8.850;2023-04-15T06:15:49;6.50;;;3.47;;
24305;SDS011;12423;48.768;8.850;2023-04-15T06:17:49;8.70;;;3.28;;
24305;SDS011;12423;48.768;8.850;2023-04-15T06:19:50;11.05;;;2.95;;
24305;SDS011;12423;48.768;8.850;2023-04-15T06:21:55;5.03;;;2.83;;
24305;SDS011;12423;48.768;8.850;2023-04-15T06:23:55;8.43;;;2.60;;
24305;SDS011;12423;48.768;8.850;2023-04-15T06:25:56;6.60;;;2.72;;
24305;SDS011;12423;48.768;8.850;2023-04-15T06:27:57;5.82;;;3.28;;
24305;SDS011;12423;48.768;8.850;2023-04-15T06:29:57;6.40;;;3.30;;
24305;SDS011;12423;48.768;8.850;2023-04-15T06:31:58;6.40;;;3.05;;
24305;SDS011;12423;48.768;8.850;2023-04-15T06:33:58;8.43;;;3.35;;
24305;SDS011;12423;48.768;8.850;2023-04-15T06:35:59;6.18;;;3.10;;
24305;SDS011;12423;48.768;8.850;2023-04-15T06:38:00;6.68;;;3.00;;
24305;SDS011;12423;48.768;8.850;2023-04-15T06:40:00;7.38;;;2.88;;
24305;SDS011;12423;48.768;8.850;2023-04-15T06:42:01;4.88;;;3.13;;
24305;SDS011;12423;48.768;8.850;2023-04-15T06:44:02;6.28;;;3.05;;
24305;SDS011;12423;48.768;8.850;2023-04-15T06:46:03;4.13;;;2.50;;
24305;SDS011;12423;48.768;8.850;2023-04-15T06:48:04;8.30;;;3.72;;
24305;SDS011;12423;48.768;8.850;2023-04-15T06:50:05;13.60;;;4.82;;
24305;SDS011;12423;48.768;8.850;2023-04-15T06:52:06;17.95;;;8.27;;
24305;SDS011;12423;48.768;8.850;2023-04-15T06:54:06;12.63;;;5.68;;
24305;SDS011;12423;48.768;8.850;2023-04-15T06:56:07;8.10;;;4.00;;
24305;SDS011;12423;48.768;8.850;2023-04-15T06:58:08;9.98;;;4.10;;
24305;SDS011;12423;48.768;8.850;2023-04-15T07:00:09;7.85;;;3.97;;
24305;SDS011;12423;48.768;8.850;2023-04-15T07:02:11;7.47;;;3.97;;
24305;SDS011;12423;48.768;8.850;2023-04-15T07:04:12;10.50;;;5.28;;
24305;SDS011;12423;48.768;8.850;2023-04-15T07:06:13;14.50;;;6.72;;
24305;SDS011;12423;48.768;8.850;2023-04-15T07:08:13;14.38;;;6.88;;
24305;SDS011;12423;48.768;8.850;2023-04-15T07:10:14;11.50;;;6.25;;
24305;SDS011;12423;48.768;8.850;2023-04-15T07:12:15;10.07;;;4.68;;
24305;SDS011;12423;48.768;8.850;2023-04-15T07:14:15;8.27;;;4.85;;
24305;SDS011;12423;48.768;8.850;2023-04-15T07:16:16;12.60;;;5.15;;
24305;SDS011;12423;48.768;8.850;2023-04-15T07:18:17;8.57;;;4.60;;
24305;SDS011;12423;48.768;8.850;2023-04-15T07:20:18;8.82;;;4.53;;
24305;SDS011;12423;48.768;8.850;2023-04-15T07:22:18;9.48;;;3.85;;
24305;SDS011;12423;48.768;8.850;2023-04-15T07:24:19;6.53;;;3.63;;
24305;SDS011;12423;48.768;8.850;2023-04-15T07:26:20;9.68;;;4.47;;
24305;SDS011;12423;48.768;8.850;2023-04-15T07:28:20;8.00;;;4.40;;
24305;SDS011;12423;48.768;8.850;2023-04-15T07:30:21;7.97;;;3.80;;
24305;SDS011;12423;48.768;8.850;2023-04-15T07:32:22;11.10;;;4.60;;
24305;SDS011;12423;48.768;8.850;2023-04-15T07:34:23;7.22;;;3.45;;
24305;SDS011;12423;48.768;8.850;2023-04-15T07:36:24;6.65;;;3.85;;
24305;SDS011;12423;48.768;8.850;2023-04-15T07:38:25;19.90;;;6.43;;
24305;SDS011;12423;48.768;8.850;2023-04-15T07:40:25;17.45;;;5.25;;
24305;SDS011;12423;48.768;8.850;2023-04-15T07:42:26;10.77;;;4.00;;
24305;SDS011;12423;48.768;8.850;2023-04-15T07:44:28;10.73;;;3.35;;
24305;SDS011;12423;48.768;8.850;2023-04-15T07:46:29;6.45;;;3.38;;
24305;SDS011;12423;48.768;8.850;2023-04-15T07:48:30;4.80;;;2.58;;
24305;SDS011;12423;48.768;8.850;2023-04-15T07:50:30;6.35;;;3.15;;
24305;SDS011;12423;48.768;8.850;2023-04-15T07:52:31;8.27;;;3.25;;
24305;SDS011;12423;48.768;8.850;2023-04-15T07:54:38;5.57;;;2.90;;
24305;SDS011;12423;48.768;8.850;2023-04-15T07:56:39;7.22;;;3.58;;
24305;SDS011;12423;48.768;8.850;2023-04-15T07:58:40;6.05;;;2.90;;
24305;SDS011;12423;48.768;8.850;2023-04-15T08:00:40;12.65;;;2.88;;
24305;SDS011;12423;48.768;8.850;2023-04-15T08:02:41;5.72;;;2.65;;
24305;SDS011;12423;48.768;8.850;2023-04-15T08:04:42;6.35;;;2.58;;
24305;SDS011;12423;48.768;8.850;2023-04-15T08:06:43;4.05;;;1.85;;
24305;SDS011;12423;48.768;8.850;2023-04-15T08:08:43;4.60;;;1.75;;
24305;SDS011;12423;48.768;8.850;2023-04-15T08:10:44;5.68;;;1.77;;
24305;SDS011;12423;48.768;8.850;2023-04-15T08:12:45;5.43;;;2.13;;
24305;SDS011;12423;48.768;8.850;2023-04-15T08:14:49;8.50;;;1.90;;
24305;SDS011;12423;48.768;8.850;2023-04-15T08:16:50;5.72;;;2.20;;
24305;SDS011;12423;48.768;8.850;2023-04-15T08:18:51;8.15;;;2.67;;
24305;SDS011;12423;48.768;8.850;2023-04-15T08:20:52;4.78;;;1.70;;
24305;SDS011;12423;48.768;8.850;2023-04-15T08:22:52;3.90;;;1.90;;
24305;SDS011;12423;48.768;8.850;2023-04-15T08:24:53;5.10;;;1.95;;
24305;SDS011;12423;48.768;8.850;2023-04-15T08:26:54;3.25;;;1.73;;
24305;SDS011;12423;48.768;8.850;2023-04-15T08:28:54;3.97;;;1.45;;
24305;SDS011;12423;48.768;8.850;2023-04-15T08:30:55;5.95;;;2.05;;
24305;SDS011;12423;48.768;8.850;2023-04-15T08:32:56;5.00;;;1.70;;
24305;SDS011;12423;48.768;8.850;2023-04-15T08:34:57;7.68;;;2.10;;
24305;SDS011;12423;48.768;8.850;2023-04-15T08:36:57;5.93;;;1.92;;
24305;SDS011;12423;48.768;8.850;2023-04-15T08:38:58;4.97;;;2.05;;
24305;SDS011;12423;48.768;8.850;2023-04-15T08:41:02;19.75;;;2.20;;
24305;SDS011;12423;48.768;8.850;2023-04-15T08:43:04;5.13;;;1.73;;
24305;SDS011;12423;48.768;8.850;2023-04-15T08:45:06;3.92;;;1.33;;
24305;SDS011;12423;48.768;8.850;2023-04-15T08:47:08;3.30;;;1.40;;
24305;SDS011;12423;48.768;8.850;2023-04-15T08:49:10;16.60;;;2.10;;
24305;SDS011;12423;48.768;8.850;2023-04-15T08:51:15;5.10;;;1.80;;
24305;SDS011;12423;48.768;8.850;2023-04-15T08:53:16;5.03;;;1.58;;
24305;SDS011;12423;48.768;8.850;2023-04-15T08:55:17;4.70;;;1.40;;
24305;SDS011;12423;48.768;8.850;2023-04-15T08:57:18;9.05;;;2.08;;
24305;SDS011;12423;48.768;8.850;2023-04-15T08:59:20;5.50;;;1.63;;
24305;SDS011;12423;48.768;8.850;2023-04-15T09:01:21;6.00;;;1.20;;
24305;SDS011;12423;48.768;8.850;2023-04-15T09:03:22;3.33;;;1.30;;
24305;SDS011;12423;48.768;8.850;2023-04-15T09:05:24;2.70;;;1.25;;
24305;SDS011;12423;48.768;8.850;2023-04-15T09:07:24;6.97;;;3.33;;
24305;SDS011;12423;48.768;8.850;2023-04-15T09:09:25;5.53;;;2.15;;
24305;SDS011;12423;48.768;8.850;2023-04-15T09:11:26;3.55;;;1.83;;
24305;SDS011;12423;48.768;8.850;2023-04-15T09:13:30;5.45;;;1.52;;
24305;SDS011;12423;48.768;8.850;2023-04-15T09:15:30;5.00;;;1.30;;
24305;SDS011;12423;48.768;8.850;2023-04-15T09:17:32;4.63;;;1.27;;
24305;SDS011;12423;48.768;8.850;2023-04-15T09:19:33;3.90;;;1.17;;
24305;SDS011;12423;48.768;8.850;2023-04-15T09:21:34;3.40;;;1.02;;
24305;SDS011;12423;48.768;8.850;2023-04-15T09:23:34;3.63;;;1.63;;
24305;SDS011;12423;48.768;8.850;2023-04-15T09:25:35;5.75;;;2.10;;
24305;SDS011;12423;48.768;8.850;2023-04-15T09:27:36;4.82;;;1.60;;
24305;SDS011;12423;48.768;8.850;2023-04-15T09:29:37;5.40;;;1.40;;
24305;SDS011;12423;48.768;8.850;2023-04-15T09:31:38;8.63;;;1.33;;
24305;SDS011;12423;48.768;8.850;2023-04-15T09:33:52;4.05;;;1.52;;
24305;SDS011;12423;48.768;8.850;2023-04-15T09:36:00;3.95;;;1.50;;
24305;SDS011;12423;48.768;8.850;2023-04-15T09:38:03;3.35;;;1.17;;
24305;SDS011;12423;48.768;8.850;2023-04-15T09:40:04;5.03;;;1.98;;
24305;SDS011;12423;48.768;8.850;2023-04-15T09:42:05;3.28;;;1.50;;
24305;SDS011;12423;48.768;8.850;2023-04-15T09:44:06;2.97;;;1.33;;
24305;SDS011;12423;48.768;8.850;2023-04-15T09:46:07;4.15;;;1.65;;
24305;SDS011;12423;48.768;8.850;2023-04-15T09:48:14;5.28;;;1.63;;
24305;SDS011;12423;48.768;8.850;2023-04-15T09:50:15;2.80;;;1.40;;
24305;SDS011;12423;48.768;8.850;2023-04-15T09:52:16;2.58;;;1.30;;
24305;SDS011;12423;48.768;8.850;2023-04-15T09:54:20;3.45;;;1.40;;
24305;SDS011;12423;48.768;8.850;2023-04-15T09:56:21;3.70;;;1.25;;
24305;SDS011;12423;48.768;8.850;2023-04-15T09:58:23;5.13;;;1.38;;
24305;SDS011;12423;48.768;8.850;2023-04-15T10:00:23;2.25;;;1.38;;
24305;SDS011;12423;48.768;8.850;2023-04-15T10:02:24;4.20;;;1.30;;
24305;SDS011;12423;48.768;8.850;2023-04-15T10:04:26;3.45;;;1.45;;
24305;SDS011;12423;48.768;8.850;2023-04-15T10:06:28;7.93;;;1.73;;
24305;SDS011;12423;48.768;8.850;2023-04-15T10:08:29;3.22;;;1.05;;
24305;SDS011;12423;48.768;8.850;2023-04-15T10:10:30;2.75;;;1.35;;
24305;SDS011;12423;48.768;8.850;2023-04-15T10:12:32;3.80;;;1.38;;
24305;SDS011;12423;48.768;8.850;2023-04-15T10:14:34;4.25;;;1.40;;
24305;SDS011;12423;48.768;8.850;2023-04-15T10:16:34;5.00;;;1.40;;
24305;SDS011;12423;48.768;8.850;2023-04-15T10:18:37;2.55;;;1.35;;
24305;SDS011;12423;48.768;8.850;2023-04-15T10:20:39;4.40;;;1.45;;
24305;SDS011;12423;48.768;8.850;2023-04-15T10:22:40;4.18;;;1.33;;
24305;SDS011;12423;48.768;8.850;2023-04-15T10:24:41;4.00;;;1.58;;
24305;SDS011;12423;48.768;8.850;2023-04-15T10:26:44;5.03;;;1.77;;
24305;SDS011;12423;48.768;8.850;2023-04-15T10:28:45;6.88;;;1.50;;
24305;SDS011;12423;48.768;8.850;2023-04-15T10:30:49;4.47;;;1.48;;
24305;SDS011;12423;48.768;8.850;2023-04-15T10:32:49;8.98;;;1.52;;
24305;SDS011;12423;48.768;8.850;2023-04-15T10:34:50;4.40;;;1.60;;
24305;SDS011;12423;48.768;8.850;2023-04-15T10:36:55;3.38;;;1.30;;
24305;SDS011;12423;48.768;8.850;2023-04-15T10:38:56;5.32;;;1.20;;
24305;SDS011;12423;48.768;8.850;2023-04-15T10:41:11;2.83;;;1.33;;
24305;SDS011;12423;48.768;8.850;2023-04-15T10:43:15;5.20;;;1.20;;
24305;SDS011;12423;48.768;8.850;2023-04-15T10:45:24;3.95;;;1.60;;
24305;SDS011;12423;48.768;8.850;2023-04-15T10:47:26;4.22;;;1.55;;
24305;SDS011;12423;48.768;8.850;2023-04-15T10:49:27;3.40;;;1.50;;
24305;SDS011;12423;48.768;8.850;2023-04-15T10:51:29;4.35;;;1.90;;
24305;SDS011;12423;48.768;8.850;2023-04-15T10:53:30;5.70;;;1.50;;
24305;SDS011;12423;48.768;8.850;2023-04-15T10:55:32;6.93;;;1.52;;
24305;SDS011;12423;48.768;8.850;2023-04-15T10:57:39;4.00;;;1.48;;
24305;SDS011;12423;48.768;8.850;2023-04-15T11:02:00;4.68;;;1.70;;
24305;SDS011;12423;48.768;8.850;2023-04-15T11:04:00;5.38;;;1.98;;
24305;SDS011;12423;48.768;8.850;2023-04-15T11:06:01;4.85;;;1.50;;
24305;SDS011;12423;48.768;8.850;2023-04-15T11:08:02;7.18;;;2.05;;
24305;SDS011;12423;48.768;8.850;2023-04-15T11:10:10;5.15;;;1.85;;
24305;SDS011;12423;48.768;8.850;2023-04-15T11:12:32;5.95;;;2.17;;
24305;SDS011;12423;48.768;8.850;2023-04-15T11:14:33;5.45;;;2.35;;
24305;SDS011;12423;48.768;8.850;2023-04-15T11:16:46;4.90;;;2.03;;
24305;SDS011;12423;48.768;8.850;2023-04-15T11:18:53;4.00;;;1.80;;
24305;SDS011;12423;48.768;8.850;2023-04-15T11:20:56;4.15;;;1.92;;
24305;SDS011;12423;48.768;8.850;2023-04-15T11:22:57;4.25;;;1.52;;
24305;SDS011;12423;48.768;8.850;2023-04-15T11:24:57;5.55;;;2.47;;
24305;SDS011;12423;48.768;8.850;2023-04-15T11:26:58;5.93;;;2.30;;
24305;SDS011;12423;48.768;8.850;2023-04-15T11:29:01;5.13;;;1.95;;
24305;SDS011;12423;48.768;8.850;2023-04-15T11:31:05;4.88;;;1.90;;
24305;SDS011;12423;48.768;8.850;2023-04-15T11:33:07;5.28;;;1.90;;
24305;SDS011;12423;48.768;8.850;2023-04-15T11:35:08;4.20;;;1.73;;
24305;SDS011;12423;48.768;8.850;2023-04-15T11:37:09;6.00;;;1.67;;
24305;SDS011;12423;48.768;8.850;2023-04-15T11:39:09;6.40;;;1.95;;
24305;SDS011;12423;48.768;8.850;2023-04-15T11:41:10;6.38;;;1.83;;
24305;SDS011;12423;48.768;8.850;2023-04-15T11:43:12;3.97;;;1.90;;
24305;SDS011;12423;48.768;8.850;2023-04-15T11:45:13;5.97;;;2.75;;
24305;SDS011;12423;48.768;8.850;2023-04-15T11:47:21;5.80;;;1.90;;
24305;SDS011;12423;48.768;8.850;2023-04-15T11:49:25;6.20;;;1.90;;
24305;SDS011;12423;48.768;8.850;2023-04-15T11:51:26;6.88;;;2.05;;
24305;SDS011;12423;48.768;8.850;2023-04-15T11:53:44;7.38;;;2.13;;
24305;SDS011;12423;48.768;8.850;2023-04-15T11:55:46;5.72;;;1.80;;
24305;SDS011;12423;48.768;8.850;2023-04-15T11:57:47;3.70;;;1.88;;
24305;SDS011;12423;48.768;8.850;2023-04-15T11:59:47;7.68;;;2.30;;
24305;SDS011;12423;48.768;8.850;2023-04-15T12:01:48;6.38;;;3.13;;
24305;SDS011;12423;48.768;8.850;2023-04-15T12:03:49;7.80;;;2.67;;
24305;SDS011;12423;48.768;8.850;2023-04-15T12:08:05;4.95;;;2.20;;
24305;SDS011;12423;48.768;8.850;2023-04-15T12:10:06;5.28;;;2.63;;
24305;SDS011;12423;48.768;8.850;2023-04-15T12:12:07;8.20;;;2.60;;
24305;SDS011;12423;48.768;8.850;2023-04-15T12:14:09;5.43;;;2.53;;
24305;SDS011;12423;48.768;8.850;2023-04-15T12:16:10;7.28;;;2.45;;
24305;SDS011;12423;48.768;8.850;2023-04-15T12:18:16;6.50;;;2.60;;